Time;durP1;ratioP1;P1;durP2;ratioP2;P2;SDS_P1;SDS_P2;PMS_P1;PMS_P2;Temp;Humidity;BMP_temperature;BMP_pressure;BME280_temperature;BME280_humidity;BME280_pressure;Samples;Min_cycle;Max_cycle;Signal;HPM_P1;HPM_P2
2022/07/15 00:02:06;;;;;;;1999.90;999.90;;;14.90;99.90;;;;;;5036486;28;20463;-73
2022/07/15 00:04:33;;;;;;;1999.90;999.90;;;15.00;99.90;;;;;;5030787;28;20596;-72
2022/07/15 00:06:59;;;;;;;1999.90;999.90;;;15.00;99.90;;;;;;5027066;28;20490;-72
2022/07/15 00:12:06;;;;;;;1999.90;999.90;;;14.90;99.90;;;;;;5027055;28;20487;-73
2022/07/15 00:14:35;;;;;;;1999.90;999.90;;;14.90;99.90;;;;;;5028711;28;20533;-71
2022/07/15 00:17:01;;;;;;;1999.90;999.90;;;14.90;99.90;;;;;;5031597;28;20517;-73
2022/07/15 00:19:28;;;;;;;1999.90;999.90;;;15.00;99.90;;;;;;5030902;28;20540;-73
2022/07/15 00:21:55;;;;;;;1999.90;999.90;;;15.00;99.90;;;;;;5031638;28;21022;-73
2022/07/15 00:24:21;;;;;;;1999.90;999.90;;;15.00;99.90;;;;;;5029750;28;20454;-72
2022/07/15 00:26:48;;;;;;;1999.90;999.90;;;15.00;99.90;;;;;;5030394;28;20509;-73
2022/07/15 00:29:15;;;;;;;1999.90;999.90;;;15.00;99.90;;;;;;5037331;28;21161;-71
2022/07/15 00:31:43;;;;;;;1999.90;999.90;;;15.00;99.90;;;;;;5034250;28;20554;-72
2022/07/15 00:34:09;;;;;;;1999.90;999.90;;;14.90;99.90;;;;;;5030993;28;20513;-70
2022/07/15 00:36:36;;;;;;;1999.90;999.90;;;14.80;99.90;;;;;;5031904;28;20467;-72
2022/07/15 00:39:03;;;;;;;1999.90;999.90;;;14.80;99.90;;;;;;5032762;28;21009;-73
2022/07/15 00:41:36;;;;;;;1999.90;999.90;;;14.90;99.90;;;;;;5031102;28;20525;-73
2022/07/15 00:44:03;;;;;;;1999.90;999.90;;;14.90;99.90;;;;;;5029356;28;20513;-73
2022/07/15 00:46:31;;;;;;;1999.90;999.90;;;15.00;99.90;;;;;;5029600;28;20467;-73
2022/07/15 00:49:00;;;;;;;1999.90;999.90;;;15.00;99.90;;;;;;5030055;28;20491;-72
2022/07/15 00:51:27;;;;;;;1999.90;999.90;;;15.20;99.90;;;;;;5029768;28;20485;-73
2022/07/15 00:53:56;;;;;;;1999.90;999.90;;;15.30;99.90;;;;;;5028350;28;20463;-73
2022/07/15 00:56:25;;;;;;;1999.90;999.90;;;15.40;99.90;;;;;;5029142;28;20495;-72
2022/07/15 00:58:53;;;;;;;1999.90;999.90;;;15.40;99.90;;;;;;5033431;28;21006;-68
2022/07/15 01:01:20;;;;;;;1999.90;999.90;;;15.40;99.90;;;;;;5029306;28;20462;-71
2022/07/15 01:03:48;;;;;;;1999.90;999.90;;;15.40;99.90;;;;;;5031508;28;20472;-73
2022/07/15 01:06:17;;;;;;;1999.90;999.90;;;15.40;99.90;;;;;;5033040;28;20459;-71
2022/07/15 01:08:43;;;;;;;1999.90;999.90;;;15.40;99.90;;;;;;5029655;28;20487;-73
2022/07/15 01:11:10;;;;;;;1999.90;999.90;;;15.40;99.90;;;;;;5030800;28;20451;-71
2022/07/15 01:13:37;;;;;;;1999.90;999.90;;;15.30;99.90;;;;;;5032750;28;20978;-72
2022/07/15 01:16:05;;;;;;;1999.90;999.90;;;15.30;99.90;;;;;;5032784;28;20463;-72
2022/07/15 01:18:31;;;;;;;1999.90;999.90;;;15.30;99.90;;;;;;5028433;28;20487;-72
2022/07/15 01:20:59;;;;;;;1999.90;999.90;;;15.30;99.90;;;;;;5029624;28;20517;-73
2022/07/15 01:23:26;;;;;;;1999.90;999.90;;;15.30;99.90;;;;;;5028054;28;20459;-73
2022/07/15 01:25:53;;;;;;;1999.90;999.90;;;15.30;99.90;;;;;;5030228;28;20521;-73
2022/07/15 01:28:20;;;;;;;1999.90;999.90;;;15.30;99.90;;;;;;5027959;28;20489;-71
2022/07/15 01:30:47;;;;;;;1999.90;999.90;;;15.30;99.90;;;;;;5034464;28;20842;-73
2022/07/15 01:33:14;;;;;;;1999.90;999.90;;;15.30;99.90;;;;;;5032362;28;20544;-72
2022/07/15 01:35:41;;;;;;;1999.90;999.90;;;15.20;99.90;;;;;;5028123;28;20463;-73
2022/07/15 01:38:10;;;;;;;1999.90;999.90;;;15.10;99.90;;;;;;5032299;28;20455;-73
2022/07/15 01:40:36;;;;;;;1999.90;999.90;;;15.20;99.90;;;;;;5026592;28;21022;-72
2022/07/15 01:43:03;;;;;;;1999.90;999.90;;;15.20;99.90;;;;;;5031477;28;21048;-73
2022/07/15 01:45:30;;;;;;;1999.90;999.90;;;15.20;99.90;;;;;;5028258;28;20556;-72
2022/07/15 01:47:57;;;;;;;1999.90;999.90;;;15.30;99.90;;;;;;5028561;28;20474;-73
2022/07/15 01:50:23;;;;;;;1999.90;999.90;;;15.30;99.90;;;;;;5028476;28;20483;-70
2022/07/15 01:52:51;;;;;;;1999.90;999.90;;;15.30;99.90;;;;;;5028447;28;21016;-73
2022/07/15 01:55:19;;;;;;;1999.90;999.90;;;15.20;99.90;;;;;;5031097;28;20842;-72
2022/07/15 01:57:45;;;;;;;1999.90;999.90;;;15.20;99.90;;;;;;5026936;28;20979;-70
2022/07/15 02:00:16;;;;;;;1999.90;999.90;;;15.30;99.90;;;;;;5030731;28;20479;-72
2022/07/15 02:02:42;;;;;;;1999.90;999.90;;;15.20;99.90;;;;;;5026673;28;20496;-72
2022/07/15 02:05:09;;;;;;;1999.90;999.90;;;15.20;99.90;;;;;;5028633;28;20493;-73
2022/07/15 02:07:36;;;;;;;1999.90;999.90;;;15.10;99.90;;;;;;5028978;28;20525;-73
2022/07/15 02:10:04;;;;;;;1999.90;999.90;;;15.20;99.90;;;;;;5028472;28;20498;-73
2022/07/15 02:12:32;;;;;;;1999.90;999.90;;;15.20;99.90;;;;;;5026743;28;20946;-72
2022/07/15 02:14:58;;;;;;;1999.90;999.90;;;15.20;99.90;;;;;;5031926;28;20459;-73
2022/07/15 02:17:25;;;;;;;1999.90;999.90;;;15.20;99.90;;;;;;5026735;28;20464;-71
2022/07/15 02:19:51;;;;;;;1999.90;999.90;;;15.20;99.90;;;;;;5027329;28;20514;-73
2022/07/15 02:22:18;;;;;;;1999.90;999.90;;;15.20;99.90;;;;;;5027802;28;20463;-73
2022/07/15 02:24:44;;;;;;;1999.90;999.90;;;15.20;99.90;;;;;;5032497;28;20525;-73
2022/07/15 02:27:11;;;;;;;1999.90;999.90;;;15.20;99.90;;;;;;5028621;28;20463;-73
2022/07/15 02:29:39;;;;;;;1999.90;999.90;;;15.10;99.90;;;;;;5028788;28;20544;-72
2022/07/15 02:32:07;;;;;;;1999.90;999.90;;;15.20;99.90;;;;;;5028534;28;20963;-72
2022/07/15 02:34:33;;;;;;;1999.90;999.90;;;15.20;99.90;;;;;;5026752;28;20522;-72
2022/07/15 02:37:00;;;;;;;1999.90;999.90;;;15.20;99.90;;;;;;5032844;28;20710;-73
2022/07/15 02:39:26;;;;;;;1999.90;999.90;;;15.20;99.90;;;;;;5031351;28;20470;-70
2022/07/15 02:41:53;;;;;;;1999.90;999.90;;;15.20;99.90;;;;;;5028725;28;20455;-73
2022/07/15 02:44:19;;;;;;;1999.90;999.90;;;15.10;99.90;;;;;;5029433;28;20454;-72
2022/07/15 02:46:47;;;;;;;1999.90;999.90;;;15.20;99.90;;;;;;5026403;28;20459;-73
2022/07/15 02:49:14;;;;;;;1999.90;999.90;;;15.30;99.90;;;;;;5029398;28;20483;-73
2022/07/15 02:51:41;;;;;;;1999.90;999.90;;;15.30;99.90;;;;;;5026164;28;22432;-73
2022/07/15 02:54:07;;;;;;;1999.90;999.90;;;15.30;99.90;;;;;;5030919;28;20459;-71
2022/07/15 02:56:34;;;;;;;1999.90;999.90;;;15.40;99.90;;;;;;5028323;28;20460;-72
2022/07/15 02:59:00;;;;;;;1999.90;999.90;;;15.40;99.90;;;;;;5029171;28;20865;-72
2022/07/15 03:01:27;;;;;;;1999.90;999.90;;;15.30;99.90;;;;;;5032224;28;20512;-71
2022/07/15 03:03:55;;;;;;;1999.90;999.90;;;15.30;99.90;;;;;;5030076;28;20471;-72
2022/07/15 03:06:22;;;;;;;1999.90;999.90;;;15.30;99.90;;;;;;5031927;28;20485;-69
2022/07/15 03:08:49;;;;;;;1999.90;999.90;;;15.20;99.90;;;;;;5029224;28;20997;-75
2022/07/15 03:11:15;;;;;;;1999.90;999.90;;;15.20;99.90;;;;;;5035788;28;20458;-73
2022/07/15 03:13:42;;;;;;;1999.90;999.90;;;15.10;99.90;;;;;;5032050;28;20836;-73
2022/07/15 03:16:09;;;;;;;1999.90;999.90;;;15.10;99.90;;;;;;5032024;28;20467;-72
2022/07/15 03:18:35;;;;;;;1999.90;999.90;;;15.10;99.90;;;;;;5027995;28;20479;-75
2022/07/15 03:21:03;;;;;;;1999.90;999.90;;;15.10;99.90;;;;;;5029709;28;21084;-74
2022/07/15 03:23:30;;;;;;;1999.90;999.90;;;15.10;99.90;;;;;;5030830;28;20512;-73
2022/07/15 03:25:57;;;;;;;1999.90;999.90;;;15.00;99.90;;;;;;5033751;28;20466;-74
2022/07/15 03:28:23;;;;;;;1999.90;999.90;;;15.00;99.90;;;;;;5030546;28;20459;-74
2022/07/15 03:30:50;;;;;;;1999.90;999.90;;;14.90;99.90;;;;;;5027688;28;20962;-72
2022/07/15 03:33:17;;;;;;;1999.90;999.90;;;14.90;99.90;;;;;;5032527;28;20455;-74
2022/07/15 03:35:43;;;;;;;1999.90;999.90;;;14.90;99.90;;;;;;5030399;28;21219;-75
2022/07/15 03:38:11;;;;;;;1999.90;999.90;;;14.90;99.90;;;;;;5032205;28;20978;-75
2022/07/15 03:40:38;;;;;;;1999.90;999.90;;;14.90;99.90;;;;;;5029513;28;20460;-74
2022/07/15 03:43:05;;;;;;;1999.90;999.90;;;14.90;99.90;;;;;;5029293;28;20545;-74
2022/07/15 03:45:31;;;;;;;1999.90;999.90;;;15.00;99.90;;;;;;5028196;28;20509;-73
2022/07/15 03:47:58;;;;;;;1999.90;999.90;;;14.90;99.90;;;;;;5032379;28;20498;-75
2022/07/15 03:50:24;;;;;;;1999.90;999.90;;;14.90;99.90;;;;;;5030360;28;20582;-74
2022/07/15 03:52:51;;;;;;;1999.90;999.90;;;14.90;99.90;;;;;;5031479;28;21056;-75
2022/07/15 03:55:19;;;;;;;1999.90;999.90;;;14.90;99.90;;;;;;5028770;28;20455;-74
2022/07/15 03:57:45;;;;;;;1999.90;999.90;;;15.00;99.90;;;;;;5027226;28;20920;-73
2022/07/15 04:00:13;;;;;;;1999.90;999.90;;;14.90;99.90;;;;;;5032877;28;20474;-74
2022/07/15 04:02:40;;;;;;;1999.90;999.90;;;15.00;99.90;;;;;;5027277;28;20606;-72
2022/07/15 04:05:07;;;;;;;1999.90;999.90;;;15.00;99.90;;;;;;5027921;28;20468;-72
2022/07/15 04:07:34;;;;;;;1999.90;999.90;;;15.00;99.90;;;;;;5027665;28;20496;-73
2022/07/15 04:10:01;;;;;;;1999.90;999.90;;;15.00;99.90;;;;;;5028588;28;20541;-70
2022/07/15 04:12:29;;;;;;;1999.90;999.90;;;15.10;99.90;;;;;;5029135;28;20464;-71
2022/07/15 04:14:55;;;;;;;1999.90;999.90;;;15.20;99.90;;;;;;5034414;28;20845;-73
2022/07/15 04:17:22;;;;;;;1999.90;999.90;;;15.00;99.90;;;;;;5034194;28;20516;-72
2022/07/15 04:19:48;;;;;;;1999.90;999.90;;;14.90;99.90;;;;;;5027090;28;20483;-73
2022/07/15 04:22:15;;;;;;;1999.90;999.90;;;14.90;99.90;;;;;;5028613;28;20525;-73
2022/07/15 04:24:42;;;;;;;1999.90;999.90;;;15.00;99.90;;;;;;5031693;28;20467;-71
2022/07/15 04:27:08;;;;;;;1999.90;999.90;;;15.00;99.90;;;;;;5027651;28;20509;-73
2022/07/15 04:29:36;;;;;;;1999.90;999.90;;;15.00;99.90;;;;;;5026411;28;20562;-74
2022/07/15 04:32:04;;;;;;;1999.90;999.90;;;15.00;99.90;;;;;;5030243;28;20463;-74
2022/07/15 04:34:30;;;;;;;1999.90;999.90;;;14.90;99.90;;;;;;5025614;28;20593;-73
2022/07/15 04:36:57;;;;;;;1999.90;999.90;;;14.90;99.90;;;;;;5030836;28;20820;-74
2022/07/15 04:39:24;;;;;;;1999.90;999.90;;;15.10;99.90;;;;;;5029775;28;20478;-74
2022/07/15 04:41:51;;;;;;;1999.90;999.90;;;15.20;99.90;;;;;;5025774;28;21041;-73
2022/07/15 04:44:18;;;;;;;1999.90;999.90;;;15.60;99.90;;;;;;5031346;28;20461;-73
2022/07/15 04:46:46;;;;;;;1999.90;999.90;;;15.90;99.90;;;;;;5028983;28;20953;-73
2022/07/15 04:51:59;;;;;;;1999.90;999.90;;;16.40;99.90;;;;;;4999129;28;20446;-73
2022/07/15 04:54:25;;;;;;;1999.90;999.90;;;16.20;99.90;;;;;;5028884;28;20460;-72
2022/07/15 04:56:52;;;;;;;1999.90;999.90;;;16.30;99.90;;;;;;5024916;28;20467;-73
2022/07/15 04:59:19;;;;;;;1999.90;999.90;;;16.50;99.90;;;;;;5032847;28;20479;-73
2022/07/15 05:01:46;;;;;;;1999.90;999.90;;;16.60;99.90;;;;;;5030442;28;20815;-73
2022/07/15 05:04:13;;;;;;;1999.90;999.90;;;16.70;99.90;;;;;;5026077;28;20464;-71
2022/07/15 05:06:40;;;;;;;1999.90;999.90;;;16.70;99.90;;;;;;5023488;28;20519;-73
2022/07/15 05:09:06;;;;;;;1999.90;999.90;;;16.70;99.90;;;;;;5030494;28;20911;-73
2022/07/15 05:11:33;;;;;;;1999.90;999.90;;;16.90;99.90;;;;;;5031101;28;20894;-72
2022/07/15 05:13:59;;;;;;;1999.90;999.90;;;17.10;99.90;;;;;;5032733;28;20566;-72
2022/07/15 05:16:26;;;;;;;1999.90;999.90;;;17.00;99.90;;;;;;5025703;28;20463;-72
2022/07/15 05:18:54;;;;;;;1999.90;999.90;;;17.10;99.90;;;;;;5024685;28;20558;-73
2022/07/15 05:21:20;;;;;;;1999.90;999.90;;;17.10;99.90;;;;;;5027173;28;20469;-75
2022/07/15 05:23:47;;;;;;;1999.90;999.90;;;17.10;99.90;;;;;;5028401;28;20512;-75
2022/07/15 05:26:14;;;;;;;1999.90;999.90;;;17.20;99.90;;;;;;5031555;28;20509;-75
2022/07/15 05:28:40;;;;;;;1999.90;999.90;;;17.30;99.90;;;;;;5047646;23;20483;-69
2022/07/15 05:31:07;;;;;;;1999.90;999.90;;;17.60;99.90;;;;;;5047179;28;20474;-69
2022/07/15 05:33:34;;;;;;;1999.90;999.90;;;17.50;99.90;;;;;;5045366;28;20953;-69
2022/07/15 05:36:02;;;;;;;1999.90;999.90;;;17.70;99.90;;;;;;5049617;28;20524;-70
2022/07/15 05:38:29;;;;;;;1999.90;999.90;;;17.70;99.90;;;;;;5042337;28;20855;-72
2022/07/15 05:40:55;;;;;;;1999.90;999.90;;;17.50;99.90;;;;;;5045779;28;20479;-70
2022/07/15 05:43:23;;;;;;;1999.90;999.90;;;17.80;99.90;;;;;;5047585;28;21053;-70
2022/07/15 05:45:50;;;;;;;1999.90;999.90;;;18.10;99.90;;;;;;5046584;28;20469;-69
2022/07/15 05:48:17;;;;;;;1999.90;999.90;;;18.30;99.90;;;;;;5047668;28;20842;-69
2022/07/15 05:50:44;;;;;;;1999.90;999.90;;;18.30;99.90;;;;;;5047303;28;20490;-70
2022/07/15 05:53:12;;;;;;;1999.90;999.90;;;18.00;99.90;;;;;;5046539;28;20455;-70
2022/07/15 05:55:39;;;;;;;1999.90;999.90;;;17.90;99.90;;;;;;5044395;28;20502;-69
2022/07/15 05:58:07;;;;;;;1999.90;999.90;;;17.80;99.90;;;;;;5048573;28;20462;-69
2022/07/15 06:00:33;;;;;;;1999.90;999.90;;;18.30;99.90;;;;;;5048002;28;20482;-69
2022/07/15 06:03:00;;;;;;;1999.90;999.90;;;18.20;99.90;;;;;;5045191;28;20902;-71
2022/07/15 06:05:27;;;;;;;1999.90;999.90;;;18.30;99.90;;;;;;5049141;28;20466;-71
2022/07/15 06:07:54;;;;;;;1999.90;999.90;;;18.00;99.90;;;;;;5048331;28;20467;-70
2022/07/15 06:10:22;;;;;;;1999.90;999.90;;;18.10;99.90;;;;;;5045739;28;20478;-69
2022/07/15 06:12:49;;;;;;;1999.90;999.90;;;17.80;99.90;;;;;;5048970;28;20462;-69
2022/07/15 06:15:16;;;;;;;1999.90;999.90;;;17.60;99.90;;;;;;5049193;28;20454;-70
2022/07/15 06:17:42;;;;;;;1999.90;999.90;;;17.60;99.90;;;;;;5047365;28;20466;-69
2022/07/15 06:20:11;;;;;;;1999.90;999.90;;;18.00;99.90;;;;;;5049125;28;20573;-70
2022/07/15 06:22:38;;;;;;;1999.90;999.90;;;18.50;99.90;;;;;;5044770;28;20458;-69
2022/07/15 06:25:05;;;;;;;1999.90;999.90;;;18.50;99.90;;;;;;5048150;28;20507;-71
2022/07/15 06:27:34;;;;;;;1999.90;999.90;;;18.20;99.90;;;;;;5049728;28;20494;-69
2022/07/15 06:30:00;;;;;;;1999.90;999.90;;;17.80;99.90;;;;;;5052224;28;21170;-68
2022/07/15 06:32:28;;;;;;;1999.90;999.90;;;17.80;99.90;;;;;;5051514;28;20458;-70
2022/07/15 06:34:54;;;;;;;1999.90;999.90;;;17.90;99.90;;;;;;5048289;28;20472;-70
2022/07/15 06:37:21;;;;;;;1999.90;999.90;;;18.00;99.90;;;;;;5052277;28;20462;-70
2022/07/15 06:39:48;;;;;;;1999.90;999.90;;;18.20;99.90;;;;;;5051411;28;20473;-69
2022/07/15 06:42:14;;;;;;;1999.90;999.90;;;18.30;99.90;;;;;;5053152;28;20887;-69
2022/07/15 06:44:43;;;;;;;1999.90;999.90;;;18.30;99.90;;;;;;5050244;28;20470;-70
2022/07/15 06:47:09;;;;;;;1999.90;999.90;;;18.60;99.90;;;;;;5052335;28;20461;-69
2022/07/15 06:49:36;;;;;;;1999.90;999.90;;;18.40;99.90;;;;;;5052615;28;20556;-70
2022/07/15 06:52:03;;;;;;;1999.90;999.90;;;18.50;99.90;;;;;;5051486;28;20520;-70
2022/07/15 06:54:30;;;;;;;1999.90;999.90;;;18.70;99.90;;;;;;5050433;28;20462;-71
2022/07/15 06:56:57;;;;;;;1999.90;999.90;;;18.60;99.90;;;;;;5051077;28;20500;-71
2022/07/15 06:59:24;;;;;;;1999.90;999.90;;;18.60;99.90;;;;;;5052337;28;20485;-68
2022/07/15 07:01:52;;;;;;;1999.90;999.90;;;18.80;99.90;;;;;;5051119;28;20462;-69
2022/07/15 07:04:19;;;;;;;1999.90;999.90;;;18.70;99.90;;;;;;5046486;28;20519;-70
2022/07/15 07:06:46;;;;;;;1999.90;999.90;;;18.50;99.90;;;;;;5063281;28;20488;-71
2022/07/15 07:09:12;;;;;;;1999.90;999.90;;;18.10;99.90;;;;;;5051753;28;20482;-70
2022/07/15 07:11:40;;;;;;;1999.90;999.90;;;17.90;99.90;;;;;;5051221;28;20493;-69
2022/07/15 07:14:07;;;;;;;1999.90;999.90;;;18.10;99.90;;;;;;5051012;28;20462;-69
2022/07/15 07:16:34;;;;;;;1999.90;999.90;;;18.10;99.90;;;;;;5050266;28;20462;-70
2022/07/15 07:19:02;;;;;;;1999.90;999.90;;;18.00;99.90;;;;;;5050054;28;20478;-69
2022/07/15 07:21:29;;;;;;;1999.90;999.90;;;17.80;99.90;;;;;;5049351;28;20450;-69
2022/07/15 07:23:55;;;;;;;1999.90;999.90;;;17.80;99.90;;;;;;5052672;28;20962;-69
2022/07/15 07:26:22;;;;;;;1999.90;999.90;;;17.70;99.90;;;;;;5053680;28;20503;-70
2022/07/15 07:28:48;;;;;;;1999.90;999.90;;;17.90;99.90;;;;;;5051152;28;20962;-70
2022/07/15 07:31:15;;;;;;;1999.90;999.90;;;17.70;99.90;;;;;;5051188;28;20486;-70
2022/07/15 07:33:42;;;;;;;1999.90;999.90;;;17.60;99.90;;;;;;5050472;28;20473;-68
2022/07/15 07:36:10;;;;;;;1999.90;999.90;;;17.70;99.90;;;;;;5051541;28;20470;-70
2022/07/15 07:38:37;;;;;;;1999.90;999.90;;;17.90;99.90;;;;;;5051504;28;20969;-71
2022/07/15 07:41:04;;;;;;;1999.90;999.90;;;18.20;99.90;;;;;;5049623;28;20474;-70
2022/07/15 07:43:32;;;;;;;1999.90;999.90;;;18.50;99.90;;;;;;5054302;28;20450;-70
2022/07/15 07:45:59;;;;;;;1999.90;999.90;;;18.60;99.90;;;;;;5052043;28;20855;-70
2022/07/15 07:48:26;;;;;;;1999.90;999.90;;;18.80;99.90;;;;;;5054260;28;20446;-69
2022/07/15 07:50:53;;;;;;;1999.90;999.90;;;18.70;99.90;;;;;;5054235;28;20565;-70
2022/07/15 07:53:21;;;;;;;1999.90;999.90;;;18.60;99.90;;;;;;5053972;28;20442;-70
2022/07/15 07:55:48;;;;;;;1999.90;999.90;;;18.50;99.90;;;;;;5054076;28;20450;-70
2022/07/15 07:58:16;;;;;;;1999.90;999.90;;;18.20;99.90;;;;;;5052970;28;20516;-70
2022/07/15 08:00:43;;;;;;;1999.90;999.90;;;18.20;99.90;;;;;;5050780;28;20478;-68
2022/07/15 08:03:10;;;;;;;1999.90;999.90;;;18.60;99.90;;;;;;5050745;28;20471;-69
2022/07/15 08:05:38;;;;;;;1999.90;999.90;;;18.70;99.90;;;;;;5049789;28;20458;-69
2022/07/15 08:08:10;;;;;;;1999.90;999.90;;;18.90;99.90;;;;;;5051869;28;20502;-68
2022/07/15 08:10:38;;;;;;;1999.90;999.90;;;19.20;99.90;;;;;;5045326;28;20544;-69
2022/07/15 08:13:05;;;;;;;1999.90;999.90;;;19.50;99.90;;;;;;5051572;28;20966;-69
2022/07/15 08:15:31;;;;;;;1999.90;999.90;;;19.10;99.90;;;;;;5051610;28;20462;-70
2022/07/15 08:17:58;;;;;;;1999.90;999.90;;;19.00;99.90;;;;;;5047818;28;20559;-70
2022/07/15 08:20:25;;;;;;;1999.90;999.90;;;19.40;99.90;;;;;;5048703;28;20478;-70
2022/07/15 08:22:57;;;;;;;1999.90;999.90;;;19.60;99.90;;;;;;5051124;28;20516;-70
2022/07/15 08:25:25;;;;;;;1999.90;999.90;;;20.10;99.90;;;;;;5052114;28;20458;-70
2022/07/15 08:27:53;;;;;;;1999.90;999.90;;;20.40;99.90;;;;;;5051232;28;20466;-70
2022/07/15 08:30:20;;;;;;;1999.90;999.90;;;20.50;99.00;;;;;;5049052;28;20911;-70
2022/07/15 08:32:47;;;;;;;1999.90;999.90;;;20.40;98.00;;;;;;5048207;28;20961;-69
2022/07/15 08:35:13;;;;;;;1999.90;999.90;;;19.80;97.40;;;;;;5051767;28;20462;-68
2022/07/15 08:37:40;;;;;;;1999.90;999.90;;;19.40;97.10;;;;;;5052728;28;21004;-70
2022/07/15 08:40:09;;;;;;;1999.90;999.90;;;19.60;97.80;;;;;;5051189;28;20490;-70
2022/07/15 08:42:35;;;;;;;1999.90;999.90;;;20.00;98.00;;;;;;5047950;28;20498;-68
2022/07/15 08:45:04;;;;;;;1999.90;999.90;;;20.50;96.90;;;;;;5046966;28;20450;-70
2022/07/15 08:47:33;;;;;;;1999.90;999.90;;;20.40;95.70;;;;;;5050126;28;20531;-69
2022/07/15 08:50:00;;;;;;;1999.90;999.90;;;20.00;95.10;;;;;;5043211;28;20478;-68
2022/07/15 08:52:27;;;;;;;1999.90;999.90;;;19.60;96.50;;;;;;5049891;28;20458;-69
2022/07/15 08:54:54;;;;;;;1999.90;999.90;;;19.70;96.00;;;;;;5049948;28;20540;-68
2022/07/15 08:57:21;;;;;;;1999.90;999.90;;;19.50;96.40;;;;;;5049111;28;20454;-70
2022/07/15 08:59:47;;;;;;;1999.90;999.90;;;19.40;96.40;;;;;;5049828;28;20486;-69
2022/07/15 09:02:18;;;;;;;1999.90;999.90;;;19.20;96.40;;;;;;5050155;28;20516;-71
2022/07/15 09:05:18;;;;;;;1999.90;999.90;;;19.30;96.10;;;;;;5050131;28;21196;-68
2022/07/15 09:07:58;;;;;;;1999.90;999.90;;;19.40;95.60;;;;;;5049223;28;20477;-68
2022/07/15 09:10:26;;;;;;;1999.90;999.90;;;19.50;95.30;;;;;;5044788;28;20583;-69
2022/07/15 09:12:54;;;;;;;1999.90;999.90;;;19.50;95.60;;;;;;5049614;28;20503;-71
2022/07/15 09:15:35;;;;;;;1999.90;999.90;;;19.40;95.60;;;;;;5048565;28;20576;-70
2022/07/15 09:18:09;;;;;;;1999.90;999.90;;;19.30;95.90;;;;;;5047600;28;20466;-69
2022/07/15 09:20:36;;;;;;;1999.90;999.90;;;19.20;96.30;;;;;;5049504;28;20482;-70
2022/07/15 09:23:04;;;;;;;1999.90;999.90;;;19.40;96.20;;;;;;5049787;28;21071;-68
2022/07/15 09:25:33;;;;;;;1999.90;999.90;;;19.30;95.80;;;;;;5052243;28;20446;-69
2022/07/15 09:28:01;;;;;;;1999.90;999.90;;;19.10;96.30;;;;;;5050142;28;20543;-70
2022/07/15 09:33:36;;;;;;;1999.90;999.90;;;18.80;96.80;;;;;;5048903;28;20529;-69
2022/07/15 09:36:11;;;;;;;1999.90;999.90;;;18.60;96.70;;;;;;5049180;28;20562;-69
2022/07/15 09:38:42;;;;;;;1999.90;999.90;;;18.60;97.10;;;;;;5045180;28;20458;-70
2022/07/15 09:41:14;;;;;;;1999.90;999.90;;;18.60;97.30;;;;;;5048596;28;20486;-70
2022/07/15 09:43:45;;;;;;;1999.90;999.90;;;18.70;97.40;;;;;;5044132;28;20488;-70
2022/07/15 09:46:13;;;;;;;1999.90;999.90;;;19.00;97.20;;;;;;5050716;28;20443;-70
2022/07/15 09:48:42;;;;;;;1999.90;999.90;;;19.40;95.90;;;;;;5045941;28;20461;-71
2022/07/15 09:51:10;;;;;;;1999.90;999.90;;;19.80;93.30;;;;;;5047219;28;20990;-71
2022/07/15 09:53:37;;;;;;;1999.90;999.90;;;20.00;93.60;;;;;;5048921;28;20469;-69
2022/07/15 09:56:07;;;;;;;1999.90;999.90;;;19.50;93.50;;;;;;5047349;28;20493;-70
2022/07/15 09:58:34;;;;;;;1999.90;999.90;;;19.10;94.20;;;;;;5046764;28;20478;-70
2022/07/15 10:01:01;;;;;;;1999.90;999.90;;;18.80;94.80;;;;;;5049657;28;20458;-70
2022/07/15 10:03:28;;;;;;;1999.90;999.90;;;18.60;95.20;;;;;;5052757;28;20458;-73
2022/07/15 10:05:57;;;;;;;1999.90;999.90;;;18.50;95.80;;;;;;5054634;28;20889;-68
2022/07/15 10:08:25;;;;;;;1999.90;999.90;;;18.60;96.20;;;;;;5058525;28;20458;-69
2022/07/15 10:10:52;;;;;;;1999.90;999.90;;;18.50;96.70;;;;;;5049461;28;20482;-69
2022/07/15 10:13:40;;;;;;;1999.90;999.90;;;18.80;96.80;;;;;;5052267;28;20466;-69
2022/07/15 10:16:25;;;;;;;1999.90;999.90;;;18.90;96.30;;;;;;5047354;28;20467;-68
2022/07/15 10:19:06;;;;;;;1999.90;999.90;;;19.20;96.30;;;;;;5047911;28;20961;-70
2022/07/15 10:21:39;;;;;;;1999.90;999.90;;;19.40;96.30;;;;;;5048623;28;20459;-70
2022/07/15 10:24:43;;;;;;;1999.90;999.90;;;19.30;96.70;;;;;;5048575;28;20458;-69
2022/07/15 10:27:26;;;;;;;1999.90;999.90;;;19.30;96.80;;;;;;5049917;28;20513;-71
2022/07/15 10:29:54;;;;;;;1999.90;999.90;;;19.20;97.10;;;;;;5045507;28;20498;-69
2022/07/15 10:32:20;;;;;;;1999.90;999.90;;;19.60;96.50;;;;;;5050750;28;20861;-69
2022/07/15 10:34:48;;;;;;;1999.90;999.90;;;19.80;96.00;;;;;;5051022;28;20496;-70
2022/07/15 10:37:16;;;;;;;1999.90;999.90;;;20.20;94.50;;;;;;5048520;28;20462;-71
2022/07/15 10:40:07;;;;;;;1999.90;999.90;;;20.50;94.20;;;;;;5047156;28;20490;-70
2022/07/15 10:43:01;;;;;;;1999.90;999.90;;;20.40;93.90;;;;;;5034027;28;20469;-69
2022/07/15 10:45:27;;;;;;;1999.90;999.90;;;20.30;93.50;;;;;;5047625;28;20464;-71
2022/07/15 10:48:28;;;;;;;1999.90;999.90;;;20.80;93.50;;;;;;5047432;28;20958;-71
2022/07/15 10:50:54;;;;;;;1999.90;999.90;;;21.50;91.90;;;;;;5044787;28;20536;-70
2022/07/15 10:53:25;;;;;;;1999.90;999.90;;;21.70;91.00;;;;;;5047523;28;20458;-68
2022/07/15 10:55:52;;;;;;;1999.90;999.90;;;20.70;91.70;;;;;;5046751;28;20466;-71
2022/07/15 10:58:19;;;;;;;1999.90;999.90;;;20.40;92.80;;;;;;5048844;28;20531;-68
2022/07/15 11:00:47;;;;;;;1999.90;999.90;;;20.20;93.10;;;;;;5046501;28;20532;-68
2022/07/15 11:03:17;;;;;;;1999.90;999.90;;;20.20;93.70;;;;;;5044958;28;21020;-69
2022/07/15 11:06:03;;;;;;;1999.90;999.90;;;20.20;93.70;;;;;;5047642;28;20518;-71
2022/07/15 11:08:54;;;;;;;1999.90;999.90;;;19.90;94.40;;;;;;5048402;28;20489;-69
2022/07/15 11:11:47;;;;;;;1999.90;999.90;;;19.80;94.60;;;;;;5044058;28;22067;-69
2022/07/15 11:14:41;;;;;;;1999.90;999.90;;;19.60;95.10;;;;;;5049367;28;20458;-69
2022/07/15 11:17:07;;;;;;;1999.90;999.90;;;19.40;95.60;;;;;;5050339;28;20462;-69
2022/07/15 11:19:35;;;;;;;1999.90;999.90;;;19.30;95.60;;;;;;5051572;28;20547;-69
2022/07/15 11:22:02;;;;;;;1999.90;999.90;;;19.30;95.70;;;;;;5049205;28;20454;-70
2022/07/15 11:24:31;;;;;;;1999.90;999.90;;;19.50;95.80;;;;;;5049740;28;20509;-68
2022/07/15 11:27:00;;;;;;;1999.90;999.90;;;19.70;95.60;;;;;;5049375;28;20527;-68
2022/07/15 11:29:40;;;;;;;1999.90;999.90;;;19.70;95.50;;;;;;5073156;22;20514;-71
2022/07/15 11:32:07;;;;;;;1999.90;999.90;;;19.80;94.80;;;;;;5031779;28;20478;-72
2022/07/15 11:34:42;;;;;;;1999.90;999.90;;;20.00;95.50;;;;;;5030960;28;20821;-73
2022/07/15 11:37:10;;;;;;;1999.90;999.90;;;20.30;94.60;;;;;;5041048;28;20462;-73
2022/07/15 11:39:38;;;;;;;1999.90;999.90;;;20.30;94.10;;;;;;5028467;28;20559;-71
2022/07/15 11:44:51;;;;;;;1999.90;999.90;;;20.60;94.00;;;;;;5028405;28;20819;-72
2022/07/15 11:47:18;;;;;;;1999.90;999.90;;;20.70;94.00;;;;;;5028409;28;20466;-72
2022/07/15 11:49:45;;;;;;;1999.90;999.90;;;20.60;94.10;;;;;;5033507;28;20490;-71
2022/07/15 11:52:14;;;;;;;1999.90;999.90;;;20.60;93.60;;;;;;5032151;28;20483;-73
2022/07/15 11:54:43;;;;;;;1999.90;999.90;;;21.00;94.00;;;;;;5024303;28;20517;-73
2022/07/15 11:57:11;;;;;;;1999.90;999.90;;;21.50;93.00;;;;;;5033866;28;20448;-71
2022/07/15 11:59:38;;;;;;;1999.90;999.90;;;21.90;91.80;;;;;;5034361;28;20532;-73
2022/07/15 12:02:08;;;;;;;1999.90;999.90;;;21.80;91.50;;;;;;5035027;28;20467;-72
2022/07/15 12:04:35;;;;;;;1999.90;999.90;;;21.00;92.70;;;;;;5036285;28;20452;-72
2022/07/15 12:07:02;;;;;;;1999.90;999.90;;;20.50;93.10;;;;;;5034920;28;20447;-71
2022/07/15 12:09:39;;;;;;;1999.90;999.90;;;20.10;93.40;;;;;;5029206;28;20480;-73
2022/07/15 12:12:07;;;;;;;1999.90;999.90;;;20.00;94.30;;;;;;5033684;28;20621;-72
2022/07/15 12:14:35;;;;;;;1999.90;999.90;;;20.10;94.20;;;;;;5029720;28;20956;-73
2022/07/15 12:17:02;;;;;;;1999.90;999.90;;;20.00;93.80;;;;;;5032887;28;20467;-71